Time;durP1;ratioP1;P1;durP2;ratioP2;P2;SDS_P1;SDS_P2;PMS_P1;PMS_P2;Temp;Humidity;BMP_temperature;BMP_pressure;BME280_temperature;BME280_humidity;BME280_pressure;Samples;Min_cycle;Max_cycle;Signal;HPM_P1;HPM_P2
2022/06/07 00:00:02;;;;;;;3.13;1.90;;;22.70;74.50;23.30;96451.00;;;;5093240;28;20203;-87
2022/06/07 00:02:30;;;;;;;1.80;1.70;;;22.70;75.20;23.30;96453.00;;;;5083235;28;20204;-87
2022/06/07 00:04:58;;;;;;;2.03;1.90;;;22.60;75.70;23.20;96441.00;;;;5073050;28;20205;-87
2022/06/07 00:07:28;;;;;;;1.97;1.87;;;22.60;76.10;23.20;96448.00;;;;5087867;28;20664;-87
2022/06/07 00:09:56;;;;;;;3.07;1.90;;;22.60;76.20;23.10;96444.00;;;;5089478;28;20191;-87
2022/06/07 00:12:25;;;;;;;2.20;1.80;;;22.50;76.20;23.00;96436.00;;;;5087499;28;20657;-87
2022/06/07 00:14:54;;;;;;;2.47;2.07;;;22.40;76.50;23.00;96438.00;;;;5091370;28;20207;-88
2022/06/07 00:17:22;;;;;;;2.07;1.70;;;22.30;76.90;22.90;96437.00;;;;5074856;28;20204;-87
2022/06/07 00:19:49;;;;;;;2.00;1.80;;;22.30;77.30;22.80;96449.00;;;;5073605;28;20634;-88
2022/06/07 00:22:17;;;;;;;1.90;1.80;;;22.20;77.50;22.80;96447.00;;;;5086893;28;20257;-88
2022/06/07 00:24:45;;;;;;;2.00;1.90;;;22.10;77.80;22.70;96446.00;;;;5086935;28;20203;-87
2022/06/07 00:27:14;;;;;;;2.30;1.97;;;22.10;78.20;22.60;96456.00;;;;5092670;28;20278;-87
2022/06/07 00:29:43;;;;;;;2.10;2.00;;;22.00;78.50;22.60;96446.00;;;;5093446;28;20231;-88
2022/06/07 00:32:12;;;;;;;2.30;2.20;;;22.00;79.10;22.50;96445.00;;;;5089286;28;20187;-88
2022/06/07 00:34:40;;;;;;;2.20;2.10;;;21.90;79.60;22.50;96445.00;;;;5073319;28;20628;-88
2022/06/07 00:37:07;;;;;;;2.40;2.30;;;21.80;80.00;22.50;96446.00;;;;5073962;28;20245;-88
2022/06/07 00:39:34;;;;;;;2.07;1.97;;;21.80;80.30;22.40;96445.00;;;;5081767;28;20187;-88
2022/06/07 00:42:02;;;;;;;2.40;2.30;;;21.80;80.90;22.40;96438.00;;;;5092711;28;20252;-88
2022/06/07 00:44:37;;;;;;;2.13;2.03;;;21.80;81.40;22.40;96449.00;;;;5091578;28;20705;-88
2022/06/07 00:47:09;;;;;;;2.37;2.27;;;21.70;81.80;22.40;96441.00;;;;5089536;28;20187;-87
2022/06/07 00:49:46;;;;;;;2.23;2.13;;;21.70;81.80;22.30;96451.00;;;;5093280;28;20192;-87
2022/06/07 00:52:13;;;;;;;2.07;1.97;;;21.70;81.50;22.30;96448.00;;;;5089818;28;20199;-87
2022/06/07 00:54:41;;;;;;;2.17;1.97;;;21.60;81.60;22.30;96459.00;;;;5091794;28;20613;-88
2022/06/07 00:57:09;;;;;;;2.40;2.30;;;21.60;81.80;22.30;96461.00;;;;5084777;28;20262;-88
2022/06/07 00:59:37;;;;;;;2.13;1.93;;;21.60;82.10;22.20;96467.00;;;;5090421;28;20191;-88
2022/06/07 01:02:06;;;;;;;2.20;2.07;;;21.60;82.60;22.20;96466.00;;;;5091910;28;20653;-88
2022/06/07 01:04:34;;;;;;;2.73;2.53;;;21.60;82.90;22.20;96472.00;;;;5075739;28;20264;-88
2022/06/07 01:12:34;;;;;;;2.57;2.37;;;21.50;83.70;22.10;96460.00;;;;5087188;28;20276;-89
2022/06/07 01:15:03;;;;;;;2.53;2.43;;;21.40;84.00;22.10;96457.00;;;;5091926;28;20617;-90
2022/06/07 01:17:30;;;;;;;2.60;2.50;;;21.40;84.30;22.00;96467.00;;;;5078469;28;20222;-89
2022/06/07 01:20:01;;;;;;;2.77;2.57;;;21.40;84.60;22.00;96467.00;;;;5094102;28;20699;-89
2022/06/07 01:22:29;;;;;;;2.60;2.40;;;21.30;84.80;22.00;96460.00;;;;5084819;28;20679;-89
2022/06/07 01:24:57;;;;;;;3.03;2.60;;;21.30;85.00;22.00;96468.00;;;;5092044;28;20217;-89
2022/06/07 01:27:24;;;;;;;2.40;2.30;;;21.30;85.00;21.90;96474.00;;;;5092517;28;20203;-91
2022/06/07 01:29:52;;;;;;;2.60;2.40;;;21.20;84.90;21.90;96471.00;;;;5092781;28;20273;-88
2022/06/07 01:32:20;;;;;;;2.70;2.50;;;21.20;85.00;21.80;96459.00;;;;5092438;28;20197;-89
2022/06/07 01:34:48;;;;;;;2.97;2.77;;;21.10;85.50;21.70;96463.00;;;;5093189;28;20203;-89
2022/06/07 01:37:18;;;;;;;2.73;2.53;;;21.10;85.20;21.70;96463.00;;;;5092312;28;20202;-89
2022/06/07 01:42:32;;;;;;;3.83;2.50;;;21.00;85.30;21.60;96455.00;;;;5061780;28;20201;-89
2022/06/07 01:44:59;;;;;;;2.40;2.30;;;20.90;85.40;21.50;96450.00;;;;5092497;28;20222;-89
2022/06/07 01:47:32;;;;;;;2.87;2.67;;;20.90;85.50;21.50;96453.00;;;;5092107;28;20197;-89
2022/06/07 01:49:59;;;;;;;2.20;2.10;;;20.90;85.80;21.40;96443.00;;;;5081845;28;20207;-89
2022/06/07 01:52:32;;;;;;;2.40;2.20;;;20.80;85.80;21.40;96442.00;;;;5081836;28;20201;-89
2022/06/07 01:55:01;;;;;;;2.30;2.20;;;20.80;85.80;21.30;96441.00;;;;5092570;28;20211;-89
2022/06/07 01:57:30;;;;;;;2.10;1.87;;;20.70;85.80;21.30;96425.00;;;;5091899;28;20218;-91
2022/06/07 01:59:58;;;;;;;2.83;2.53;;;20.60;85.80;21.20;96423.00;;;;5090746;28;20195;-89
2022/06/07 02:02:27;;;;;;;2.33;2.23;;;20.60;85.80;21.20;96425.00;;;;5091056;28;20643;-90
2022/06/07 02:04:56;;;;;;;3.00;2.50;;;20.50;85.80;21.10;96411.00;;;;5083138;28;20196;-90
2022/06/07 02:07:24;;;;;;;2.37;2.20;;;20.50;85.90;21.00;96439.00;;;;5079953;28;20245;-89
2022/06/07 02:09:52;;;;;;;2.47;2.27;;;20.40;85.90;21.00;96434.00;;;;5071913;28;20200;-90
2022/06/07 02:12:21;;;;;;;2.33;2.13;;;20.40;86.10;21.00;96432.00;;;;5070895;28;20282;-89
2022/06/07 02:14:48;;;;;;;2.20;2.10;;;20.40;86.40;20.90;96423.00;;;;5071380;28;20302;-89
2022/06/07 02:17:15;;;;;;;2.20;2.10;;;20.30;86.50;20.90;96426.00;;;;5087214;28;20252;-87
2022/06/07 02:19:44;;;;;;;3.03;2.17;;;20.30;86.70;20.90;96423.00;;;;5083849;28;20256;-89
2022/06/07 02:22:11;;;;;;;2.37;2.27;;;20.20;86.90;20.90;96411.00;;;;5092285;28;20288;-88
2022/06/07 02:24:39;;;;;;;2.40;2.20;;;20.20;87.00;20.80;96402.00;;;;5092164;28;20235;-89
2022/06/07 02:27:12;;;;;;;2.63;2.43;;;20.20;87.10;20.80;96401.00;;;;5090676;28;20717;-88
2022/06/07 02:29:45;;;;;;;2.40;2.20;;;20.20;87.10;20.70;96406.00;;;;5091750;28;20270;-89
2022/06/07 02:32:20;;;;;;;2.50;2.30;;;20.10;87.10;20.70;96396.00;;;;5091648;28;20184;-88
2022/06/07 02:34:53;;;;;;;2.20;2.00;;;20.10;87.10;20.70;96400.00;;;;5092284;28;20304;-90
2022/06/07 02:37:22;;;;;;;1.93;1.83;;;20.00;87.10;20.60;96397.00;;;;5092709;28;20276;-89
2022/06/07 02:39:50;;;;;;;2.10;2.00;;;20.00;87.30;20.60;96396.00;;;;5092639;28;20192;-89
2022/06/07 02:42:20;;;;;;;2.47;2.27;;;19.90;87.30;20.50;96388.00;;;;5092464;28;20188;-89
2022/06/07 02:44:49;;;;;;;3.53;2.27;;;19.90;87.50;20.50;96393.00;;;;5092845;28;20726;-89
2022/06/07 02:47:17;;;;;;;2.60;2.40;;;19.90;87.80;20.50;96385.00;;;;5091842;28;20203;-89
2022/06/07 02:49:44;;;;;;;2.83;2.30;;;19.80;87.80;20.40;96389.00;;;;5091474;28;20227;-90
2022/06/07 02:52:11;;;;;;;2.03;1.93;;;19.80;87.90;20.40;96382.00;;;;5092079;28;20597;-89
2022/06/07 02:54:39;;;;;;;2.50;2.30;;;19.80;88.00;20.40;96375.00;;;;5092150;28;20276;-89
2022/06/07 02:57:07;;;;;;;2.17;2.00;;;19.70;88.20;20.40;96389.00;;;;5090665;28;20233;-88
2022/06/07 02:59:34;;;;;;;2.07;1.97;;;19.70;88.40;20.30;96392.00;;;;5085728;28;20258;-88
2022/06/07 03:02:05;;;;;;;2.47;2.27;;;19.70;88.50;20.30;96392.00;;;;5071195;28;20230;-89
2022/06/07 03:04:33;;;;;;;2.13;2.03;;;19.70;88.70;20.30;96384.00;;;;5088873;28;20222;-89
2022/06/07 03:07:01;;;;;;;2.57;2.47;;;19.60;88.80;20.30;96393.00;;;;5091530;28;20211;-90
2022/06/07 03:09:28;;;;;;;2.47;2.23;;;19.70;88.80;20.30;96385.00;;;;5086412;28;20277;-89
2022/06/07 03:11:56;;;;;;;4.03;2.17;;;19.60;88.80;20.30;96394.00;;;;5071701;28;20210;-89
2022/06/07 03:14:23;;;;;;;2.33;2.13;;;19.60;88.80;20.30;96401.00;;;;5071088;28;20219;-89
2022/06/07 03:16:50;;;;;;;2.37;2.27;;;19.60;88.80;20.20;96406.00;;;;5088517;28;20221;-88
2022/06/07 03:19:19;;;;;;;3.10;2.20;;;19.60;88.80;20.20;96410.00;;;;5092942;28;20223;-88
2022/06/07 03:21:47;;;;;;;2.10;2.00;;;19.60;89.00;20.20;96406.00;;;;5092079;28;20188;-88
2022/06/07 03:24:14;;;;;;;2.03;1.83;;;19.60;89.10;20.20;96415.00;;;;5093459;28;20203;-88
2022/06/07 03:26:41;;;;;;;1.73;1.63;;;19.60;89.10;20.20;96411.00;;;;5094309;28;20187;-88
2022/06/07 03:29:10;;;;;;;2.30;1.90;;;19.50;89.10;20.20;96403.00;;;;5094656;28;20574;-88
2022/06/07 03:31:37;;;;;;;2.17;1.67;;;19.50;88.90;20.20;96415.00;;;;5094422;28;20688;-90
2022/06/07 03:34:04;;;;;;;1.60;1.50;;;19.50;88.80;20.20;96429.00;;;;5094612;28;20277;-88
2022/06/07 03:36:33;;;;;;;2.10;1.90;;;19.50;88.80;20.20;96415.00;;;;5086810;28;20199;-88
2022/06/07 03:39:07;;;;;;;1.40;1.30;;;19.50;88.80;20.10;96411.00;;;;5094578;28;20261;-88
2022/06/07 03:41:35;;;;;;;1.57;1.47;;;19.50;88.90;20.10;96411.00;;;;5095152;28;20211;-89
2022/06/07 03:44:03;;;;;;;1.60;1.50;;;19.50;88.90;20.10;96416.00;;;;5093374;28;20198;-88
2022/06/07 03:46:33;;;;;;;1.90;1.60;;;19.50;89.10;20.10;96420.00;;;;5094677;28;20203;-88
2022/06/07 03:49:02;;;;;;;1.43;1.33;;;19.40;89.10;20.10;96421.00;;;;5094601;28;20216;-89
2022/06/07 03:51:32;;;;;;;2.70;1.90;;;19.40;89.20;20.10;96420.00;;;;5093944;28;20858;-88
2022/06/07 03:54:00;;;;;;;1.67;1.60;;;19.40;89.20;20.10;96416.00;;;;5083914;28;20244;-89
2022/06/07 03:56:28;;;;;;;1.97;1.87;;;19.40;89.30;20.00;96416.00;;;;5087406;28;20253;-88
2022/06/07 03:58:55;;;;;;;2.30;2.10;;;19.40;89.20;20.00;96423.00;;;;5093272;28;20761;-88
2022/06/07 04:01:25;;;;;;;1.83;1.60;;;19.40;89.20;20.00;96421.00;;;;5088375;28;20215;-88
2022/06/07 04:03:55;;;;;;;1.87;1.77;;;19.40;89.30;20.00;96424.00;;;;5093837;28;20270;-87
2022/06/07 04:06:26;;;;;;;1.83;1.73;;;19.40;89.40;20.00;96425.00;;;;5094458;28;20600;-87
2022/06/07 04:08:58;;;;;;;2.23;2.03;;;19.30;89.50;20.00;96420.00;;;;5093820;28;20293;-87
2022/06/07 04:11:31;;;;;;;2.70;1.67;;;19.30;89.50;20.00;96430.00;;;;5093935;28;20637;-87
2022/06/07 04:14:02;;;;;;;1.60;1.50;;;19.30;89.50;20.00;96417.00;;;;5092570;28;20485;-87
2022/06/07 04:16:36;;;;;;;1.53;1.43;;;19.30;89.60;20.00;96418.00;;;;5093316;28;20223;-86
2022/06/07 04:19:08;;;;;;;1.30;1.30;;;19.30;89.70;20.00;96420.00;;;;5093224;28;20747;-87
2022/06/07 04:21:49;;;;;;;1.57;1.47;;;19.30;89.80;20.00;96416.00;;;;5079380;28;20206;-87
2022/06/07 04:24:21;;;;;;;2.40;1.37;;;19.30;89.80;20.10;96417.00;;;;5089822;28;20211;-88
2022/06/07 04:26:51;;;;;;;1.50;1.40;;;19.30;89.50;20.10;96423.00;;;;5083778;28;20815;-87
2022/06/07 04:29:39;;;;;;;1.27;1.20;;;19.30;89.50;20.10;96422.00;;;;5092949;28;20239;-87
2022/06/07 04:32:16;;;;;;;1.57;1.23;;;19.30;89.50;20.10;96416.00;;;;5091651;28;20196;-87
2022/06/07 04:34:48;;;;;;;2.10;1.57;;;19.30;89.60;20.10;96413.00;;;;5087518;28;20322;-88
2022/06/07 04:37:24;;;;;;;2.17;1.50;;;19.30;89.70;20.10;96417.00;;;;5087934;28;20206;-87
2022/06/07 04:40:05;;;;;;;1.70;1.27;;;19.30;89.70;20.10;96418.00;;;;5079198;28;20204;-87
2022/06/07 04:42:32;;;;;;;1.40;1.30;;;19.30;89.80;20.10;96415.00;;;;5080840;28;20202;-89
2022/06/07 04:45:00;;;;;;;1.70;1.60;;;19.30;89.80;20.10;96418.00;;;;5090680;28;20261;-89
2022/06/07 04:47:27;;;;;;;1.40;1.30;;;19.30;89.80;20.10;96414.00;;;;5088588;28;20199;-84
2022/06/07 04:49:55;;;;;;;1.30;1.30;;;19.30;89.80;20.10;96417.00;;;;5092031;28;20207;-85
2022/06/07 04:52:33;;;;;;;1.57;1.47;;;19.30;89.60;20.10;96419.00;;;;5073358;28;20199;-88
2022/06/07 04:55:02;;;;;;;1.50;1.40;;;19.30;89.60;20.10;96419.00;;;;5078628;28;20265;-87
2022/06/07 04:57:30;;;;;;;2.20;1.77;;;19.30;89.40;20.10;96419.00;;;;5091335;28;20266;-87
2022/06/07 04:59:57;;;;;;;1.33;1.23;;;19.30;89.40;20.10;96414.00;;;;5092631;28;20200;-87
2022/06/07 05:02:25;;;;;;;1.80;1.70;;;19.30;89.60;20.10;96412.00;;;;5087731;28;20196;-87
2022/06/07 05:04:52;;;;;;;1.83;1.60;;;19.30;89.80;20.00;96415.00;;;;5085782;28;20276;-87
2022/06/07 05:07:20;;;;;;;1.43;1.43;;;19.30;89.90;20.00;96415.00;;;;5085702;28;20648;-88
2022/06/07 05:09:48;;;;;;;1.83;1.40;;;19.30;89.90;20.10;96407.00;;;;5087648;28;20198;-87
2022/06/07 05:12:17;;;;;;;1.47;1.37;;;19.30;90.00;20.10;96415.00;;;;5077960;28;20249;-88
2022/06/07 05:14:45;;;;;;;2.23;1.63;;;19.30;90.00;20.10;96416.00;;;;5090585;28;20215;-87
2022/06/07 05:17:12;;;;;;;1.70;1.60;;;19.30;90.10;20.10;96413.00;;;;5087303;28;20191;-86
2022/06/07 05:19:40;;;;;;;1.60;1.50;;;19.30;90.10;20.10;96416.00;;;;5087243;28;20191;-86
2022/06/07 05:22:13;;;;;;;2.00;1.90;;;19.30;90.00;20.10;96420.00;;;;5090905;28;20210;-84
2022/06/07 05:24:40;;;;;;;1.80;1.70;;;19.30;90.00;20.10;96418.00;;;;5088875;28;20655;-84
2022/06/07 05:27:15;;;;;;;1.50;1.40;;;19.30;90.00;20.10;96416.00;;;;5078305;28;20200;-84
2022/06/07 05:29:52;;;;;;;2.10;1.90;;;19.30;90.00;20.10;96418.00;;;;5084439;28;20195;-84
2022/06/07 05:32:20;;;;;;;2.03;1.93;;;19.30;90.10;20.10;96419.00;;;;5088331;28;20199;-84
2022/06/07 05:35:05;;;;;;;1.83;1.73;;;19.30;90.10;20.10;96418.00;;;;5090828;28;20219;-84
2022/06/07 05:37:34;;;;;;;2.00;1.90;;;19.30;90.10;20.10;96412.00;;;;5080818;28;20224;-84
2022/06/07 05:40:03;;;;;;;1.97;1.87;;;19.30;90.10;20.10;96418.00;;;;5088437;28;20215;-84
2022/06/07 05:42:30;;;;;;;2.33;2.13;;;19.30;90.10;20.20;96412.00;;;;5078850;28;20306;-83
2022/06/07 05:44:59;;;;;;;2.33;1.70;;;19.40;90.20;20.20;96409.00;;;;5098721;28;20245;-84
2022/06/07 05:47:26;;;;;;;2.30;2.10;;;19.40;90.30;20.20;96412.00;;;;5092923;28;20208;-84
2022/06/07 05:49:55;;;;;;;2.60;2.10;;;19.40;90.30;20.20;96409.00;;;;5101691;28;20195;-83
2022/06/07 05:52:22;;;;;;;2.03;1.90;;;19.40;90.30;20.20;96410.00;;;;5102642;28;20180;-83
2022/06/07 05:54:49;;;;;;;1.73;1.53;;;19.40;90.20;20.20;96408.00;;;;5096667;28;20211;-85
2022/06/07 05:57:17;;;;;;;2.37;1.97;;;19.40;90.20;20.20;96413.00;;;;5080975;28;20200;-86
2022/06/07 05:59:44;;;;;;;1.40;1.40;;;19.40;90.20;20.20;96416.00;;;;5090275;28;20278;-86
2022/06/07 06:02:13;;;;;;;1.70;1.60;;;19.40;90.30;20.20;96417.00;;;;5084897;28;20188;-85
2022/06/07 06:04:41;;;;;;;1.80;1.70;;;19.40;90.30;20.20;96413.00;;;;5090551;28;20221;-85
2022/06/07 06:07:08;;;;;;;2.73;1.70;;;19.40;90.30;20.20;96416.00;;;;5089622;28;20195;-85
2022/06/07 06:12:29;;;;;;;1.87;1.77;;;19.40;90.30;20.20;96414.00;;;;5036203;28;20192;-87
2022/06/07 06:14:56;;;;;;;1.80;1.70;;;19.40;90.30;20.20;96415.00;;;;5091418;28;20207;-86
2022/06/07 06:17:25;;;;;;;3.33;1.80;;;19.40;90.40;20.20;96415.00;;;;5091297;28;20215;-86
2022/06/07 06:19:52;;;;;;;1.73;1.63;;;19.40;90.40;20.20;96414.00;;;;5077946;28;20189;-86
2022/06/07 06:22:20;;;;;;;1.50;1.40;;;19.50;90.40;20.20;96412.00;;;;5088227;28;20207;-86
2022/06/07 06:24:47;;;;;;;1.80;1.67;;;19.50;90.70;20.20;96408.00;;;;5083243;28;20195;-86
2022/06/07 06:27:14;;;;;;;1.70;1.60;;;19.50;90.40;20.20;96405.00;;;;5088574;28;20683;-87
2022/06/07 06:29:42;;;;;;;1.70;1.60;;;19.50;90.50;20.30;96405.00;;;;5088255;28;20198;-84
2022/06/07 06:32:10;;;;;;;1.30;1.30;;;19.50;90.50;20.30;96407.00;;;;5083611;28;20528;-86
2022/06/07 06:34:39;;;;;;;1.20;1.20;;;19.50;90.50;20.30;96403.00;;;;5075486;28;20315;-85
2022/06/07 06:37:06;;;;;;;1.57;1.47;;;19.50;90.50;20.30;96403.00;;;;5088865;28;20671;-85
2022/06/07 06:39:34;;;;;;;1.63;1.53;;;19.50;90.50;20.30;96403.00;;;;5086179;28;20511;-86
2022/06/07 06:42:01;;;;;;;1.70;1.60;;;19.50;90.40;20.30;96409.00;;;;5083773;22;20228;-83
2022/06/07 06:44:28;;;;;;;1.17;1.17;;;19.50;90.40;20.30;96411.00;;;;5059677;28;20223;-84
2022/06/07 06:46:57;;;;;;;1.30;1.20;;;19.50;90.40;20.30;96415.00;;;;5071151;28;20231;-85
2022/06/07 06:49:24;;;;;;;1.33;1.23;;;19.50;90.50;20.40;96422.00;;;;5071236;28;20192;-84
2022/06/07 06:51:53;;;;;;;1.30;1.20;;;19.50;90.50;20.40;96415.00;;;;5067277;28;20653;-84
2022/06/07 06:54:21;;;;;;;1.50;1.40;;;19.50;90.40;20.40;96409.00;;;;5076799;28;20220;-84
2022/06/07 06:56:49;;;;;;;1.37;1.27;;;19.50;90.40;20.40;96418.00;;;;5085001;28;20696;-85
2022/06/07 06:59:17;;;;;;;1.30;1.20;;;19.50;90.30;20.40;96422.00;;;;5075066;28;20196;-84
2022/06/07 07:01:45;;;;;;;1.40;1.30;;;19.50;90.40;20.40;96423.00;;;;5080719;28;20229;-83
2022/06/07 07:04:16;;;;;;;1.20;1.20;;;19.60;90.40;20.40;96423.00;;;;5074168;28;20235;-86
2022/06/07 07:06:43;;;;;;;1.03;1.03;;;19.60;90.30;20.40;96422.00;;;;5073365;28;20225;-82
2022/06/07 07:09:12;;;;;;;2.10;1.40;;;19.60;90.20;20.40;96421.00;;;;5067293;28;20206;-83
2022/06/07 07:11:43;;;;;;;1.50;1.40;;;19.60;90.50;20.40;96420.00;;;;5068973;28;20224;-82
2022/06/07 07:14:12;;;;;;;1.50;1.40;;;19.60;90.20;20.40;96423.00;;;;5070978;28;20212;-83
2022/06/07 07:16:43;;;;;;;1.33;1.17;;;19.60;90.30;20.40;96434.00;;;;5074683;28;20254;-83
2022/06/07 07:19:13;;;;;;;1.00;1.00;;;19.60;90.30;20.40;96429.00;;;;5077023;28;20218;-84
2022/06/07 07:21:45;;;;;;;1.40;1.30;;;19.50;90.30;20.40;96427.00;;;;5073857;28;20223;-83
2022/06/07 07:24:17;;;;;;;1.30;1.20;;;19.60;90.40;20.50;96426.00;;;;5073408;28;20593;-83
2022/06/07 07:26:46;;;;;;;1.87;1.40;;;19.60;90.50;20.50;96427.00;;;;5072945;28;20230;-83
2022/06/07 07:29:16;;;;;;;1.60;1.20;;;19.60;90.60;20.60;96426.00;;;;5077566;28;20240;-81
2022/06/07 07:31:44;;;;;;;1.53;1.40;;;19.60;90.70;20.70;96423.00;;;;5078237;28;20237;-82
2022/06/07 07:34:15;;;;;;;1.67;1.57;;;19.70;90.90;20.80;96428.00;;;;5075239;28;20248;-82
2022/06/07 07:36:46;;;;;;;1.70;1.60;;;19.80;91.00;20.80;96426.00;;;;5076752;28;20204;-82
2022/06/07 07:39:15;;;;;;;1.70;1.60;;;19.80;91.00;20.90;96435.00;;;;5076851;28;20206;-84
2022/06/07 07:41:48;;;;;;;1.50;1.40;;;19.80;91.10;21.00;96438.00;;;;5071213;28;20219;-83
2022/06/07 07:44:17;;;;;;;2.00;1.90;;;19.90;91.10;21.00;96438.00;;;;5074005;28;20226;-83
2022/06/07 07:46:45;;;;;;;1.60;1.37;;;20.00;91.00;21.10;96437.00;;;;5072188;28;20196;-82
2022/06/07 07:49:15;;;;;;;1.60;1.50;;;20.00;90.80;21.10;96434.00;;;;5073087;28;20224;-83
2022/06/07 07:51:45;;;;;;;1.37;1.30;;;20.10;90.80;21.20;96431.00;;;;5072529;28;20568;-83
2022/06/07 07:54:17;;;;;;;1.40;1.30;;;20.10;90.80;21.20;96439.00;;;;5071791;28;20211;-82
2022/06/07 07:56:45;;;;;;;1.20;1.20;;;20.10;90.90;21.20;96438.00;;;;5074324;28;20235;-82
2022/06/07 07:59:19;;;;;;;1.50;1.40;;;20.20;90.90;21.30;96435.00;;;;5069120;28;20215;-82
2022/06/07 08:01:49;;;;;;;1.23;1.23;;;20.20;90.80;21.30;96433.00;;;;5073947;28;20662;-82
2022/06/07 08:04:16;;;;;;;1.50;1.40;;;20.20;90.70;21.30;96433.00;;;;5074017;28;20219;-82
2022/06/07 08:06:44;;;;;;;2.10;2.00;;;20.30;90.60;21.30;96439.00;;;;5075019;28;20226;-82
2022/06/07 08:09:12;;;;;;;1.80;1.70;;;20.30;90.60;21.30;96437.00;;;;5074440;28;20227;-82
2022/06/07 08:11:42;;;;;;;1.70;1.60;;;20.30;90.60;21.30;96430.00;;;;5080238;28;20245;-82
2022/06/07 08:14:14;;;;;;;1.80;1.70;;;20.30;90.50;21.30;96438.00;;;;5077823;28;20216;-83
2022/06/07 08:16:41;;;;;;;1.97;1.87;;;20.30;90.60;21.30;96436.00;;;;5074318;28;20214;-82
2022/06/07 08:19:09;;;;;;;1.77;1.67;;;20.30;90.70;21.30;96440.00;;;;5074368;28;20564;-82
2022/06/07 08:21:38;;;;;;;1.70;1.60;;;20.40;90.80;21.30;96447.00;;;;5074304;28;20199;-83
2022/06/07 08:24:07;;;;;;;1.77;1.67;;;20.40;90.70;21.30;96444.00;;;;5073019;28;20307;-82
2022/06/07 08:26:35;;;;;;;1.70;1.60;;;20.40;90.60;21.30;96442.00;;;;5073497;28;20646;-82
2022/06/07 08:29:04;;;;;;;1.50;1.40;;;20.40;90.60;21.30;96446.00;;;;5069156;28;20203;-83
2022/06/07 08:31:33;;;;;;;1.97;1.87;;;20.40;90.60;21.30;96452.00;;;;5073333;28;20195;-83
2022/06/07 08:39:32;;;;;;;1.90;1.80;;;20.40;90.50;21.20;96453.00;;;;5061956;28;20201;-83
2022/06/07 08:42:02;;;;;;;2.00;1.90;;;20.40;90.50;21.20;96453.00;;;;5073000;28;20580;-82
2022/06/07 08:44:41;;;;;;;1.80;1.70;;;20.40;90.50;21.10;96453.00;;;;5071853;28;20200;-83
2022/06/07 08:47:23;;;;;;;2.10;1.93;;;20.40;90.50;21.10;96455.00;;;;5068032;28;20246;-82
2022/06/07 08:49:51;;;;;;;2.03;1.93;;;20.40;90.50;21.10;96453.00;;;;5065222;28;20192;-83
2022/06/07 08:52:26;;;;;;;2.97;2.20;;;20.30;90.60;21.10;96456.00;;;;5072332;28;20248;-83
2022/06/07 08:54:58;;;;;;;2.60;2.40;;;20.30;90.60;21.10;96458.00;;;;5067161;28;20557;-83
2022/06/07 08:57:30;;;;;;;2.40;2.30;;;20.30;90.60;21.10;96457.00;;;;5072218;28;20230;-83
2022/06/07 09:00:15;;;;;;;2.57;2.37;;;20.30;90.60;21.10;96461.00;;;;5071269;28;20200;-83
2022/06/07 09:03:33;;;;;;;2.20;2.10;;;20.30;90.60;21.10;96455.00;;;;5073035;28;20303;-83
2022/06/07 09:06:04;;;;;;;3.30;2.10;;;20.30;90.60;21.20;96451.00;;;;5059340;28;20219;-83
2022/06/07 09:08:39;;;;;;;2.30;2.20;;;20.30;90.80;21.20;96450.00;;;;5070752;28;20204;-83
2022/06/07 09:14:04;;;;;;;2.70;2.50;;;20.40;91.00;21.30;96447.00;;;;5052400;28;20226;-82
2022/06/07 09:16:41;;;;;;;3.40;2.47;;;20.40;91.00;21.30;96447.00;;;;5052521;28;20681;-85
2022/06/07 09:19:19;;;;;;;2.90;2.70;;;20.40;90.90;21.30;96451.00;;;;5067549;28;20274;-83
2022/06/07 09:21:49;;;;;;;2.77;2.57;;;20.40;90.90;21.40;96456.00;;;;5071683;28;20293;-83
2022/06/07 09:24:30;;;;;;;3.10;2.90;;;20.50;91.00;21.40;96455.00;;;;5069076;28;20223;-83
2022/06/07 09:27:12;;;;;;;2.93;2.73;;;20.50;90.90;21.40;96456.00;;;;5072168;28;20191;-84
2022/06/07 09:29:41;;;;;;;3.10;2.90;;;20.50;90.90;21.40;96457.00;;;;5073427;28;20255;-84
2022/06/07 09:32:18;;;;;;;3.40;3.10;;;20.50;90.80;21.40;96456.00;;;;5072386;28;20230;-83
2022/06/07 09:34:57;;;;;;;4.37;2.93;;;20.50;90.70;21.40;96450.00;;;;5071370;28;20234;-83
2022/06/07 09:37:47;;;;;;;3.03;2.83;;;20.50;90.60;21.30;96458.00;;;;5071524;28;20200;-83
2022/06/07 09:40:30;;;;;;;3.10;2.90;;;20.50;90.40;21.30;96447.00;;;;5052499;28;20181;-83
2022/06/07 09:43:08;;;;;;;2.83;2.63;;;20.50;90.40;21.30;96442.00;;;;5051780;28;20260;-84
2022/06/07 09:45:39;;;;;;;3.20;3.00;;;20.50;90.40;21.30;96450.00;;;;5080010;28;20234;-83
2022/06/07 09:48:32;;;;;;;3.03;2.80;;;20.50;90.40;21.30;96445.00;;;;5072304;28;20202;-84
2022/06/07 09:51:08;;;;;;;3.30;2.93;;;20.50;90.20;21.20;96449.00;;;;5063604;28;20196;-82
2022/06/07 09:53:39;;;;;;;3.00;2.80;;;20.40;90.40;21.20;96448.00;;;;5072156;28;20219;-83
2022/06/07 09:56:26;;;;;;;3.07;2.87;;;20.40;90.50;21.30;96449.00;;;;5077147;28;20304;-84
2022/06/07 09:59:15;;;;;;;3.30;3.10;;;20.40;90.40;21.30;96442.00;;;;5072068;28;20226;-83
2022/06/07 10:01:52;;;;;;;3.47;3.03;;;20.40;90.50;21.30;96442.00;;;;5069333;28;20234;-83
2022/06/07 10:04:35;;;;;;;3.77;3.40;;;20.40;90.60;21.30;96448.00;;;;5055314;28;20666;-83
2022/06/07 10:07:11;;;;;;;3.90;3.20;;;20.40;90.60;21.30;96447.00;;;;5078996;28;20601;-83
2022/06/07 10:10:02;;;;;;;3.73;3.53;;;20.40;90.70;21.40;96438.00;;;;5077546;28;20240;-84
2022/06/07 10:12:44;;;;;;;5.43;3.10;;;20.40;90.60;21.40;96432.00;;;;5072930;28;20284;-81
2022/06/07 10:15:34;;;;;;;4.77;3.27;;;20.40;90.70;21.40;96434.00;;;;5107372;22;20710;-88
2022/06/07 10:18:26;;;;;;;3.60;2.90;;;20.50;90.70;21.40;96444.00;;;;5072049;28;20198;-87
2022/06/07 10:21:17;;;;;;;4.00;3.70;;;20.50;90.90;21.50;96444.00;;;;5084763;28;20740;-88
2022/06/07 10:24:15;;;;;;;4.00;3.67;;;20.50;91.00;21.60;96444.00;;;;5084397;28;21387;-87
2022/06/07 10:27:00;;;;;;;3.60;3.40;;;20.60;91.10;21.80;96445.00;;;;5087239;28;20203;-87
2022/06/07 10:30:14;;;;;;;3.90;3.60;;;20.70;91.40;21.90;96440.00;;;;5073646;28;20200;-87
2022/06/07 10:33:00;;;;;;;3.97;3.77;;;20.80;91.50;22.00;96447.00;;;;5074828;28;20219;-88
2022/06/07 10:35:42;;;;;;;5.33;3.60;;;20.80;91.50;22.10;96446.00;;;;5069578;28;20704;-88
2022/06/07 10:38:40;;;;;;;4.80;3.80;;;20.90;91.40;22.10;96441.00;;;;5076015;28;20318;-88
2022/06/07 10:41:22;;;;;;;4.07;3.73;;;21.00;91.20;22.20;96441.00;;;;5071255;28;20364;-87
2022/06/07 10:44:02;;;;;;;3.83;3.53;;;21.00;91.20;22.30;96441.00;;;;5069657;28;20232;-87
2022/06/07 10:46:30;;;;;;;4.10;3.57;;;21.10;91.20;22.30;96441.00;;;;5079728;28;20245;-87
2022/06/07 10:49:24;;;;;;;3.80;3.60;;;21.20;91.40;22.40;96445.00;;;;5090923;28;20191;-87
2022/06/07 10:55:03;;;;;;;3.87;3.57;;;21.30;91.30;22.60;96426.00;;;;5089663;28;20334;-86
2022/06/07 10:57:41;;;;;;;3.50;3.20;;;21.40;91.10;22.70;96425.00;;;;5070799;28;20216;-88
2022/06/07 11:00:30;;;;;;;3.50;3.20;;;21.40;91.20;22.80;96436.00;;;;5072575;28;20203;-87
2022/06/07 11:03:10;;;;;;;3.63;3.33;;;21.50;90.90;22.80;96429.00;;;;5080553;28;20208;-87
2022/06/07 11:11:24;;;;;;;3.57;3.37;;;21.70;91.30;23.10;96431.00;;;;5077468;28;20337;-88
2022/06/07 11:14:12;;;;;;;3.77;3.43;;;21.80;91.20;23.20;96438.00;;;;5074894;28;20544;-88
2022/06/07 11:16:56;;;;;;;3.43;3.23;;;21.80;90.90;23.20;96439.00;;;;5082904;28;20215;-86
2022/06/07 11:19:24;;;;;;;3.43;3.20;;;21.90;90.80;23.20;96437.00;;;;5088621;28;20210;-88
2022/06/07 11:21:57;;;;;;;3.20;3.00;;;21.90;90.80;23.30;96430.00;;;;5083891;28;20774;-87
2022/06/07 11:24:31;;;;;;;4.13;3.73;;;22.00;90.50;23.30;96439.00;;;;5067401;28;20658;-86
2022/06/07 11:27:19;;;;;;;3.40;3.10;;;22.00;90.30;23.30;96435.00;;;;5086296;28;20280;-88
2022/06/07 11:29:47;;;;;;;3.13;2.93;;;22.00;90.10;23.30;96420.00;;;;5083653;28;20199;-88
2022/06/07 11:32:51;;;;;;;3.10;2.87;;;22.00;90.30;23.30;96439.00;;;;5076585;28;20216;-88
2022/06/07 11:35:51;;;;;;;3.60;3.30;;;22.10;90.00;23.30;96433.00;;;;5074775;28;20283;-88
2022/06/07 11:38:35;;;;;;;3.30;3.10;;;22.10;89.70;23.30;96431.00;;;;5070410;28;20199;-87
2022/06/07 11:41:44;;;;;;;3.57;3.37;;;22.10;89.10;23.30;96435.00;;;;5071970;28;20285;-88
2022/06/07 11:44:59;;;;;;;2.90;2.70;;;22.10;89.30;23.40;96427.00;;;;5068924;28;20208;-87